Time;durP1;ratioP1;P1;durP2;ratioP2;P2;SDS_P1;SDS_P2;PMS_P1;PMS_P2;Temp;Humidity;BMP_temperature;BMP_pressure;BME280_temperature;BME280_humidity;BME280_pressure;Samples;Min_cycle;Max_cycle;Signal;HPM_P1;HPM_P2
2023/01/13 00:00:23;;;;;;;16.00;8.00;;;;;;;5.88;79.41;99667.96;102576;1255;1003821;-78
2023/01/13 00:03:10;;;;;;;17.30;8.30;;;;;;;5.87;79.60;99664.90;103460;1253;110299;-80
2023/01/13 00:05:38;;;;;;;16.10;7.70;;;;;;;5.87;79.61;99668.69;103481;1256;97816;-80
2023/01/13 00:08:05;;;;;;;16.60;8.20;;;;;;;5.87;79.68;99668.85;103360;1251;138422;-80
2023/01/13 00:10:33;;;;;;;16.10;7.70;;;;;;;5.87;79.45;99662.64;103427;1256;97803;-78
2023/01/13 00:13:01;;;;;;;20.30;8.70;;;;;;;5.88;79.75;99666.57;103368;1256;138428;-79
2023/01/13 00:15:28;;;;;;;15.20;7.70;;;;;;;5.88;79.53;99660.38;103392;1253;108771;-80
2023/01/13 00:17:55;;;;;;;18.60;8.40;;;;;;;5.88;79.59;99665.56;103494;1254;98411;-79
2023/01/13 00:20:22;;;;;;;14.70;7.80;;;;;;;5.86;79.62;99658.70;103332;1254;137933;-79
2023/01/13 00:22:50;;;;;;;17.20;8.30;;;;;;;5.84;79.74;99658.06;103481;1254;97694;-79
2023/01/13 00:25:17;;;;;;;17.00;8.30;;;;;;;5.83;79.86;99664.64;103408;1254;142609;-79
2023/01/13 00:27:44;;;;;;;14.60;8.00;;;;;;;5.82;80.04;99662.95;103459;1253;107847;-79
2023/01/13 00:30:13;;;;;;;17.50;7.80;;;;;;;5.78;80.37;99663.38;103437;1255;97683;-79
2023/01/13 00:32:41;;;;;;;15.40;8.30;;;;;;;5.76;80.52;99655.83;103426;1253;107697;-79
2023/01/13 00:35:09;;;;;;;17.70;8.20;;;;;;;5.75;80.65;99656.20;103454;1252;97803;-79
2023/01/13 00:37:38;;;;;;;16.80;8.20;;;;;;;5.73;80.56;99655.36;103358;1256;138174;-79
2023/01/13 00:40:06;;;;;;;17.40;8.30;;;;;;;5.72;80.74;99650.55;103468;1253;107591;-80
2023/01/13 00:45:19;;;;;;;17.10;8.20;;;;;;;5.70;81.03;99642.84;102686;1253;1003568;-78
2023/01/13 00:47:46;;;;;;;18.90;8.50;;;;;;;5.70;81.07;99637.83;103448;1252;97800;-79
2023/01/13 00:50:14;;;;;;;18.30;8.50;;;;;;;5.69;81.37;99641.66;103279;1254;138329;-80
2023/01/13 00:52:41;;;;;;;20.70;8.60;;;;;;;5.69;81.40;99649.08;103479;1253;107558;-79
2023/01/13 00:55:09;;;;;;;17.10;8.50;;;;;;;5.67;81.56;99647.21;103358;1253;138246;-79
2023/01/13 00:57:38;;;;;;;15.00;8.50;;;;;;;5.67;81.86;99652.41;103768;1253;106912;-80
2023/01/13 01:00:07;;;;;;;16.40;8.50;;;;;;;5.63;82.39;99647.83;103469;1253;97806;-79
2023/01/13 01:02:34;;;;;;;14.20;8.20;;;;;;;5.57;82.93;99650.20;103853;1253;138685;-78
2023/01/13 01:05:02;;;;;;;22.20;9.20;;;;;;;5.52;83.25;99643.58;103343;1253;107283;-79
2023/01/13 01:07:31;;;;;;;19.00;8.70;;;;;;;5.48;83.55;99641.61;103320;1252;138284;-79
2023/01/13 01:09:58;;;;;;;17.80;8.80;;;;;;;5.44;83.55;99636.34;103427;1256;106692;-80
2023/01/13 01:12:26;;;;;;;17.70;8.70;;;;;;;5.41;83.91;99636.23;103380;1256;139077;-79
2023/01/13 01:14:53;;;;;;;20.80;8.90;;;;;;;5.37;83.84;99634.56;103445;1255;110290;-80
2023/01/13 01:17:20;;;;;;;20.00;9.20;;;;;;;5.35;83.72;99629.27;103425;1256;106804;-79
2023/01/13 01:19:47;;;;;;;18.00;9.30;;;;;;;5.34;83.96;99622.56;103423;1253;138258;-79
2023/01/13 01:22:14;;;;;;;18.80;8.80;;;;;;;5.34;83.82;99621.55;103487;1254;107053;-79
2023/01/13 01:24:41;;;;;;;18.50;9.00;;;;;;;5.33;83.97;99619.84;103387;1253;138389;-78
2023/01/13 01:27:09;;;;;;;17.10;8.70;;;;;;;5.33;83.78;99619.84;103374;1255;112400;-78
2023/01/13 01:29:36;;;;;;;18.30;8.80;;;;;;;5.33;84.07;99618.29;103392;1253;107205;-78
2023/01/13 01:32:03;;;;;;;20.10;9.00;;;;;;;5.33;83.80;99621.56;102584;1253;1002997;-80
2023/01/13 01:34:30;;;;;;;19.80;8.40;;;;;;;5.33;84.09;99616.39;103451;1252;107621;-80
2023/01/13 01:36:57;;;;;;;18.00;8.80;;;;;;;5.33;83.94;99613.29;103381;1256;138319;-78
2023/01/13 01:39:25;;;;;;;17.30;8.30;;;;;;;5.34;83.88;99615.33;103394;1253;110234;-80
2023/01/13 01:44:58;;;;;;;19.30;8.30;;;;;;;5.35;84.19;99603.41;103439;1253;97681;-79
2023/01/13 01:47:26;;;;;;;14.60;7.40;;;;;;;5.34;84.76;99597.76;103362;1253;107413;-79
2023/01/13 01:49:55;;;;;;;18.60;8.50;;;;;;;5.32;84.86;99584.18;103341;1256;138151;-80
2023/01/13 01:52:26;;;;;;;18.40;8.50;;;;;;;5.31;85.09;99590.76;103403;1256;110717;-79
2023/01/13 01:54:58;;;;;;;15.50;8.30;;;;;;;5.30;84.99;99583.55;103845;1253;138761;-79
2023/01/13 01:57:31;;;;;;;16.90;8.30;;;;;;;5.29;84.91;99587.36;103418;1255;98360;-80
2023/01/13 02:00:00;;;;;;;16.60;7.90;;;;;;;5.28;85.01;99578.23;103418;1253;107248;-80
2023/01/13 02:02:39;;;;;;;19.70;8.20;;;;;;;5.27;85.11;99578.95;103462;1254;97877;-80
2023/01/13 02:05:07;;;;;;;16.90;7.90;;;;;;;5.28;85.35;99570.33;103461;1254;110440;-79
2023/01/13 02:07:37;;;;;;;13.90;7.50;;;;;;;5.28;85.12;99568.24;104188;1253;138504;-79
2023/01/13 02:10:09;;;;;;;15.50;8.20;;;;;;;5.30;85.28;99565.45;102595;1253;1002860;-79
2023/01/13 02:12:37;;;;;;;19.40;8.10;;;;;;;5.30;85.19;99564.05;103357;1256;139500;-80
2023/01/13 02:15:08;;;;;;;17.70;7.80;;;;;;;5.31;85.34;99563.68;103500;1253;97942;-80
2023/01/13 02:17:53;;;;;;;14.40;7.90;;;;;;;5.32;85.34;99557.80;103453;1253;112108;-80
2023/01/13 02:20:50;;;;;;;14.40;7.20;;;;;;;5.33;85.41;99565.17;103156;1253;138395;-80
2023/01/13 02:27:00;;;;;;;13.60;7.80;;;;;;;5.36;85.18;99553.21;103280;1253;137962;-80
2023/01/13 02:32:40;;;;;;;16.60;7.80;;;;;;;5.39;85.27;99557.31;103351;1253;138227;-79
2023/01/13 02:35:14;;;;;;;15.70;7.50;;;;;;;5.40;85.37;99552.31;102608;1255;1003780;-78
2023/01/13 02:37:44;;;;;;;15.60;8.00;;;;;;;5.39;85.69;99547.83;103661;1253;138305;-79
2023/01/13 02:40:19;;;;;;;17.20;8.30;;;;;;;5.38;85.90;99551.28;104232;1253;108088;-79
2023/01/13 02:45:42;;;;;;;15.40;7.80;;;;;;;5.33;86.50;99546.40;103698;1253;111104;-78
2023/01/13 02:48:12;;;;;;;17.20;8.10;;;;;;;5.32;86.49;99548.83;103452;1252;106652;-79
2023/01/13 02:50:44;;;;;;;16.70;7.20;;;;;;;5.31;86.75;99546.62;103511;1252;97695;-79
2023/01/13 02:53:16;;;;;;;13.90;7.40;;;;;;;5.31;86.80;99552.48;103433;1253;108075;-80
2023/01/13 02:55:47;;;;;;;15.80;7.30;;;;;;;5.31;86.77;99548.70;103513;1256;138126;-80
2023/01/13 02:58:18;;;;;;;15.40;8.10;;;;;;;5.30;86.95;99548.72;103491;1256;111226;-80
2023/01/13 03:00:46;;;;;;;16.10;7.80;;;;;;;5.29;86.93;99538.39;103563;1252;139492;-80
2023/01/13 03:03:13;;;;;;;17.00;7.80;;;;;;;5.28;86.78;99540.14;103714;1253;96480;-80
2023/01/13 03:05:44;;;;;;;15.60;7.90;;;;;;;5.27;86.83;99537.76;103495;1252;107132;-80
2023/01/13 03:08:22;;;;;;;16.20;7.60;;;;;;;5.26;87.03;99529.68;103359;1256;138257;-79
2023/01/13 03:11:01;;;;;;;13.60;7.40;;;;;;;5.25;86.74;99533.14;103486;1253;110248;-80
2023/01/13 03:13:47;;;;;;;14.40;8.10;;;;;;;5.25;86.92;99532.28;102586;1253;1002757;-79
2023/01/13 03:16:23;;;;;;;13.00;7.10;;;;;;;5.25;86.90;99528.67;103382;1256;97780;-79
2023/01/13 03:19:00;;;;;;;18.40;7.90;;;;;;;5.25;86.85;99527.64;103554;1253;138400;-79
2023/01/13 03:21:27;;;;;;;;;;;;;;;5.26;86.94;99530.55;103539;1253;1002522;-79
2023/01/13 03:24:03;;;;;;;14.80;7.60;;;;;;;5.25;87.15;99531.60;103491;1253;112112;-80
2023/01/13 03:26:36;;;;;;;20.40;8.40;;;;;;;5.24;87.45;99530.76;103339;1254;138699;-80
2023/01/13 03:29:15;;;;;;;15.40;7.80;;;;;;;5.23;87.47;99527.00;104185;1253;95742;-79
2023/01/13 03:31:47;;;;;;;15.40;8.00;;;;;;;5.21;87.56;99527.71;103442;1253;139629;-79
2023/01/13 03:34:21;;;;;;;11.60;7.00;;;;;;;5.22;87.81;99523.07;104074;1253;97761;-80
2023/01/13 03:36:54;;;;;;;14.90;7.40;;;;;;;5.20;87.96;99521.02;103944;1256;138856;-79
2023/01/13 03:39:29;;;;;;;16.90;7.80;;;;;;;5.19;87.79;99520.35;103391;1255;107645;-79
2023/01/13 03:42:01;;;;;;;15.60;8.00;;;;;;;5.19;87.85;99520.52;102992;1252;1003280;-79
2023/01/13 03:44:33;;;;;;;14.80;7.90;;;;;;;5.19;87.98;99524.83;103418;1253;138231;-80
2023/01/13 03:47:09;;;;;;;14.90;7.40;;;;;;;5.19;88.11;99520.00;103383;1256;98470;-80
2023/01/13 03:49:44;;;;;;;14.90;7.70;;;;;;;5.19;88.70;99516.73;103422;1254;138448;-78
2023/01/13 03:52:17;;;;;;;16.10;7.10;;;;;;;5.18;88.80;99513.99;103633;1252;106666;-78
2023/01/13 03:54:51;;;;;;;15.40;7.70;;;;;;;5.16;89.45;99513.85;103375;1253;139301;-80
2023/01/13 03:57:23;;;;;;;14.30;7.30;;;;;;;5.14;89.75;99512.52;103559;1253;107508;-78
2023/01/13 03:59:54;;;;;;;14.40;7.40;;;;;;;5.12;90.16;99507.40;103634;1254;96144;-77
2023/01/13 04:02:33;;;;;;;17.30;8.00;;;;;;;5.11;90.63;99508.98;103257;1254;138330;-79
2023/01/13 04:05:03;;;;;;;16.50;8.50;;;;;;;5.09;90.94;99508.16;104097;1253;107364;-77
2023/01/13 04:07:40;;;;;;;13.30;7.50;;;;;;;5.06;91.47;99511.16;103314;1253;139191;-79
2023/01/13 04:10:10;;;;;;;16.60;8.30;;;;;;;5.04;92.08;99511.05;103430;1253;107388;-78
2023/01/13 04:15:28;;;;;;;15.50;7.90;;;;;;;5.00;92.68;99513.34;103432;1256;111133;-79
2023/01/13 04:18:01;;;;;;;18.40;7.80;;;;;;;4.98;92.85;99508.90;103556;1254;107922;-77
2023/01/13 04:20:28;;;;;;;15.80;8.60;;;;;;;4.97;92.56;99502.89;103432;1256;139508;-78
2023/01/13 04:22:55;;;;;;;13.10;7.90;;;;;;;4.99;92.48;99506.84;103504;1252;107664;-79
2023/01/13 04:25:22;;;;;;;17.50;8.40;;;;;;;4.99;92.44;99503.19;103700;1251;138296;-79
2023/01/13 04:27:50;;;;;;;17.00;8.60;;;;;;;5.01;92.51;99504.38;103551;1253;111288;-78
2023/01/13 04:30:17;;;;;;;16.00;8.30;;;;;;;5.02;92.52;99504.85;103280;1256;138495;-74
2023/01/13 04:32:44;;;;;;;15.80;8.30;;;;;;;5.03;92.55;99500.04;103380;1256;98289;-78
2023/01/13 04:35:12;;;;;;;19.30;8.00;;;;;;;5.04;92.29;99502.95;103403;1256;106613;-78
2023/01/13 04:37:39;;;;;;;11.80;8.20;;;;;;;5.05;92.56;99497.58;103286;1256;138184;-78
2023/01/13 04:40:08;;;;;;;15.60;8.30;;;;;;;5.06;92.46;99503.25;102904;1253;1003758;-78
2023/01/13 04:42:35;;;;;;;17.10;8.10;;;;;;;5.07;92.25;99497.53;103502;1254;140254;-78
2023/01/13 04:45:03;;;;;;;18.10;8.40;;;;;;;5.08;92.33;99495.60;103442;1256;98334;-77
2023/01/13 04:47:30;;;;;;;14.10;7.80;;;;;;;5.09;92.58;99498.51;103433;1253;107667;-78
2023/01/13 04:49:57;;;;;;;14.30;7.70;;;;;;;5.10;92.59;99497.80;103368;1256;138256;-79
2023/01/13 04:52:24;;;;;;;13.90;7.80;;;;;;;5.11;92.59;99492.61;103477;1253;110808;-78
2023/01/13 04:54:51;;;;;;;15.00;7.60;;;;;;;5.12;92.38;99492.41;103367;1253;138490;-78
2023/01/13 04:57:18;;;;;;;16.10;7.50;;;;;;;5.13;92.36;99491.35;103502;1256;97976;-78
2023/01/13 04:59:45;;;;;;;13.20;7.40;;;;;;;5.14;92.62;99492.02;103412;1254;106959;-77
2023/01/13 05:02:18;;;;;;;13.10;6.90;;;;;;;5.14;92.31;99491.67;103211;1256;138829;-77
2023/01/13 05:04:46;;;;;;;12.80;8.00;;;;;;;5.14;92.52;99493.90;103486;1252;110921;-78
2023/01/13 05:07:13;;;;;;;12.10;6.90;;;;;;;5.15;92.20;99499.22;103223;1257;139569;-78
2023/01/13 05:09:40;;;;;;;15.00;7.60;;;;;;;5.16;92.41;99490.76;103301;1256;97808;-77
2023/01/13 05:17:38;;;;;;;16.70;7.30;;;;;;;5.19;92.96;99493.64;103305;1253;111854;-78
2023/01/13 05:20:07;;;;;;;13.50;6.70;;;;;;;5.17;93.41;99490.91;103203;1253;138185;-79
2023/01/13 05:25:23;;;;;;;18.40;7.30;;;;;;;5.15;93.19;99491.14;103181;1253;138080;-78
2023/01/13 05:27:52;;;;;;;13.40;7.00;;;;;;;5.14;93.55;99496.33;103273;1258;97819;-78
2023/01/13 05:30:20;;;;;;;16.60;7.40;;;;;;;5.13;94.03;99499.45;103288;1259;110563;-78
2023/01/13 05:32:47;;;;;;;19.00;7.10;;;;;;;5.11;94.64;99495.70;103276;1259;107579;-79
2023/01/13 05:35:15;;;;;;;12.70;7.00;;;;;;;5.09;94.75;99498.01;103305;1253;97804;-79
2023/01/13 05:37:42;;;;;;;15.10;7.60;;;;;;;5.06;95.00;99490.99;103200;1253;138064;-79
2023/01/13 05:43:23;;;;;;;13.30;7.20;;;;;;;5.03;95.22;99493.14;103193;1258;139723;-79
2023/01/13 05:45:53;;;;;;;16.30;8.00;;;;;;;5.01;95.79;99490.39;103249;1258;108098;-79
2023/01/13 05:48:24;;;;;;;20.70;9.00;;;;;;;5.01;96.11;99496.42;103364;1253;97791;-79
2023/01/13 05:50:52;;;;;;;19.30;8.40;;;;;;;5.01;96.51;99493.50;103360;1253;105673;-79
2023/01/13 05:53:19;;;;;;;14.20;7.90;;;;;;;5.01;96.40;99496.27;103271;1259;97884;-80
2023/01/13 05:55:47;;;;;;;16.10;8.10;;;;;;;5.00;96.97;99499.21;103242;1256;138221;-78
2023/01/13 05:58:15;;;;;;;15.00;8.40;;;;;;;5.00;96.93;99501.27;103327;1253;108289;-77
2023/01/13 06:00:43;;;;;;;16.20;8.20;;;;;;;4.98;97.10;99502.54;102461;1253;1003025;-77
2023/01/13 06:03:10;;;;;;;13.70;7.50;;;;;;;4.98;97.55;99507.52;103339;1259;106780;-80
2023/01/13 06:05:38;;;;;;;15.20;8.50;;;;;;;4.97;97.51;99506.87;103353;1253;98257;-78
2023/01/13 06:08:07;;;;;;;16.20;8.10;;;;;;;4.97;97.69;99506.86;103325;1253;138553;-78
2023/01/13 06:10:35;;;;;;;19.00;9.40;;;;;;;4.97;97.89;99510.48;103438;1253;107240;-79
2023/01/13 06:13:03;;;;;;;18.30;8.70;;;;;;;4.96;98.27;99508.09;103286;1253;138285;-79
2023/01/13 06:15:30;;;;;;;15.30;8.70;;;;;;;4.96;98.02;99511.03;103508;1253;106791;-79
2023/01/13 06:17:57;;;;;;;14.50;8.50;;;;;;;4.96;97.62;99512.39;103394;1253;97780;-78
2023/01/13 06:20:24;;;;;;;17.50;8.50;;;;;;;4.96;97.92;99522.73;103323;1253;138157;-78
2023/01/13 06:22:54;;;;;;;19.70;8.60;;;;;;;4.97;97.91;99512.21;103287;1256;107820;-79
2023/01/13 06:25:32;;;;;;;16.00;8.30;;;;;;;4.97;98.12;99511.35;103202;1253;138375;-79
2023/01/13 06:28:00;;;;;;;15.80;8.40;;;;;;;4.98;98.08;99512.36;103612;1252;108616;-79
2023/01/13 06:30:30;;;;;;;13.00;8.20;;;;;;;4.98;98.23;99513.55;103413;1256;138412;-73
2023/01/13 06:33:01;;;;;;;14.90;8.20;;;;;;;4.97;98.63;99513.58;103469;1256;111172;-80
2023/01/13 06:35:32;;;;;;;17.90;8.40;;;;;;;4.99;98.22;99512.34;103451;1254;107241;-80
2023/01/13 06:38:03;;;;;;;16.80;8.50;;;;;;;4.99;98.73;99512.16;103224;1255;138333;-82
2023/01/13 06:40:30;;;;;;;13.40;7.70;;;;;;;5.00;98.56;99517.46;103426;1254;107418;-81
2023/01/13 06:43:17;;;;;;;15.20;7.80;;;;;;;5.02;98.17;99516.58;103246;1253;138368;-80
2023/01/13 06:45:49;;;;;;;14.00;7.10;;;;;;;5.04;98.26;99522.08;103443;1253;111255;-80
2023/01/13 06:48:17;;;;;;;13.60;7.80;;;;;;;5.06;98.03;99519.45;103435;1252;107660;-79
2023/01/13 06:50:45;;;;;;;18.40;7.80;;;;;;;5.07;98.02;99520.45;103287;1253;138363;-76
2023/01/13 06:53:12;;;;;;;14.60;7.00;;;;;;;5.07;97.64;99517.52;103352;1255;108260;-76
2023/01/13 06:55:39;;;;;;;16.20;7.40;;;;;;;5.07;97.61;99521.48;103365;1257;139713;-77
2023/01/13 06:58:06;;;;;;;13.60;6.70;;;;;;;5.07;97.74;99525.45;103409;1253;111502;-78
2023/01/13 07:00:35;;;;;;;13.50;6.70;;;;;;;5.07;97.54;99523.38;103287;1255;139009;-77
2023/01/13 07:03:13;;;;;;;10.80;6.80;;;;;;;5.07;97.78;99519.06;103430;1253;96462;-80
2023/01/13 07:05:41;;;;;;;14.50;6.40;;;;;;;5.09;97.60;99515.23;103417;1254;107658;-78
2023/01/13 07:08:09;;;;;;;14.30;6.90;;;;;;;5.11;97.58;99516.91;103312;1256;138310;-80
2023/01/13 07:10:37;;;;;;;13.50;6.20;;;;;;;5.13;97.44;99518.94;102604;1256;1002639;-78
2023/01/13 07:15:58;;;;;;;13.50;6.30;;;;;;;5.19;97.29;99517.06;103452;1253;97790;-74
2023/01/13 07:18:27;;;;;;;12.10;6.60;;;;;;;5.23;97.07;99515.28;103254;1253;107280;-79
2023/01/13 07:20:56;;;;;;;11.00;5.90;;;;;;;5.25;97.06;99520.05;103352;1253;97783;-78
2023/01/13 07:23:24;;;;;;;12.00;6.30;;;;;;;5.27;96.84;99519.14;103512;1254;109925;-78
2023/01/13 07:25:51;;;;;;;10.20;6.10;;;;;;;5.30;96.79;99515.45;103239;1256;138902;-78
2023/01/13 07:28:18;;;;;;;13.80;6.90;;;;;;;5.31;96.91;99516.11;103380;1256;97876;-76
2023/01/13 07:30:45;;;;;;;13.10;6.50;;;;;;;5.34;96.75;99516.05;103397;1253;139241;-79
2023/01/13 07:33:13;;;;;;;17.80;6.60;;;;;;;5.35;96.83;99520.14;103495;1256;97906;-77
2023/01/13 07:35:40;;;;;;;12.10;7.10;;;;;;;5.37;96.81;99517.00;103474;1256;110785;-80
2023/01/13 07:38:07;;;;;;;11.80;6.70;;;;;;;5.38;96.65;99524.73;103190;1253;138246;-80
2023/01/13 07:40:34;;;;;;;12.90;6.10;;;;;;;5.39;96.69;99525.25;103410;1253;97899;-80
2023/01/13 07:45:46;;;;;;;15.30;6.40;;;;;;;5.40;96.95;99527.12;103351;1253;97679;-80
2023/01/13 07:48:15;;;;;;;12.50;6.20;;;;;;;5.40;96.86;99520.56;103420;1253;111746;-82
2023/01/13 07:50:42;;;;;;;11.00;6.00;;;;;;;5.42;96.91;99526.05;103410;1256;140198;-83
2023/01/13 07:53:10;;;;;;;12.60;6.80;;;;;;;5.41;96.87;99521.91;103354;1256;98265;-80
2023/01/13 07:55:40;;;;;;;11.20;6.50;;;;;;;5.41;96.76;99520.20;103286;1256;138412;-81
2023/01/13 07:58:08;;;;;;;13.90;7.00;;;;;;;5.42;97.20;99525.35;103394;1256;97804;-79
2023/01/13 08:00:36;;;;;;;14.00;6.20;;;;;;;5.42;97.09;99526.04;103198;1253;138421;-79
2023/01/13 08:03:03;;;;;;;14.90;7.00;;;;;;;5.43;96.98;99527.23;101862;1251;2003232;-79
2023/01/13 08:05:30;;;;;;;13.60;7.30;;;;;;;5.43;97.17;99524.63;103504;1256;97822;-79
2023/01/13 08:07:57;;;;;;;14.10;6.60;;;;;;;5.45;97.36;99525.46;103385;1256;138253;-79
2023/01/13 08:10:24;;;;;;;10.90;6.20;;;;;;;5.46;97.06;99521.82;103533;1254;97701;-78
2023/01/13 08:15:37;;;;;;;11.60;6.70;;;;;;;5.48;97.11;99522.46;103568;1254;107468;-79
2023/01/13 08:18:04;;;;;;;15.00;7.00;;;;;;;5.50;97.27;99530.17;103499;1256;98341;-79
2023/01/13 08:20:31;;;;;;;12.00;6.50;;;;;;;5.52;97.11;99526.34;103340;1256;138169;-79
2023/01/13 08:22:59;;;;;;;14.90;6.80;;;;;;;5.53;97.37;99527.84;103550;1254;97786;-81
2023/01/13 08:25:28;;;;;;;14.90;6.80;;;;;;;5.56;97.29;99530.70;101658;1253;2002930;-80
2023/01/13 08:27:58;;;;;;;12.60;7.20;;;;;;;5.60;97.29;99530.13;103298;1254;107763;-80
2023/01/13 08:30:26;;;;;;;12.80;6.80;;;;;;;5.62;97.56;99538.00;103359;1256;97851;-80
2023/01/13 08:32:54;;;;;;;14.50;6.80;;;;;;;5.64;97.27;99531.92;103375;1256;107998;-79
2023/01/13 08:35:21;;;;;;;13.20;6.40;;;;;;;5.66;97.42;99527.56;103455;1254;97792;-79
2023/01/13 08:37:49;;;;;;;15.00;6.80;;;;;;;5.68;97.36;99531.80;103280;1253;138223;-79
2023/01/13 08:40:19;;;;;;;12.10;6.30;;;;;;;5.71;97.40;99532.42;103307;1256;106714;-79
2023/01/13 08:42:47;;;;;;;11.00;6.80;;;;;;;5.73;97.49;99526.50;103164;1256;140945;-79
2023/01/13 08:45:15;;;;;;;11.10;6.70;;;;;;;5.76;97.46;99525.09;103202;1256;108411;-79
2023/01/13 08:47:42;;;;;;;13.50;6.70;;;;;;;5.78;97.13;99529.87;103373;1256;97785;-80
2023/01/13 08:50:11;;;;;;;12.90;6.70;;;;;;;5.81;97.09;99528.40;103189;1256;138106;-77
2023/01/13 08:52:38;;;;;;;13.60;6.40;;;;;;;5.83;97.06;99530.94;103698;1253;107681;-77
2023/01/13 08:55:06;;;;;;;10.80;6.50;;;;;;;5.86;97.02;99531.20;103278;1254;138301;-81
2023/01/13 08:57:34;;;;;;;14.40;6.20;;;;;;;5.88;97.08;99539.61;103735;1255;141680;-75
2023/01/13 09:00:02;;;;;;;14.40;6.00;;;;;;;5.90;96.63;99539.75;103907;1253;97682;-79
2023/01/13 09:02:29;;;;;;;10.40;5.80;;;;;;;5.91;96.55;99539.55;103358;1254;110364;-76
2023/01/13 09:04:59;;;;;;;15.10;6.20;;;;;;;5.94;96.30;99538.83;103188;1256;138175;-75
2023/01/13 09:07:26;;;;;;;11.10;6.40;;;;;;;5.95;96.18;99543.10;103484;1256;97872;-73
2023/01/13 09:09:55;;;;;;;10.30;5.90;;;;;;;5.97;95.96;99537.88;103379;1253;138172;-74
2023/01/13 09:15:11;;;;;;;11.30;5.60;;;;;;;6.01;95.60;99530.86;102894;1256;138225;-79
2023/01/13 09:17:38;;;;;;;9.90;5.40;;;;;;;6.03;95.36;99530.48;102968;1254;108347;-81
2023/01/13 09:20:06;;;;;;;14.90;5.80;;;;;;;6.05;95.10;99528.69;102971;1256;98422;-80
2023/01/13 09:22:36;;;;;;;8.30;5.60;;;;;;;6.07;94.81;99528.64;102621;1256;138335;-78
2023/01/13 09:25:04;;;;;;;11.50;5.70;;;;;;;6.10;94.66;99528.59;102719;1267;97795;-79
2023/01/13 09:27:31;;;;;;;11.40;6.20;;;;;;;6.11;94.37;99526.14;102733;1253;138204;-77
2023/01/13 09:29:58;;;;;;;12.20;6.10;;;;;;;6.13;94.06;99519.20;102938;1253;105493;-78
2023/01/13 09:32:26;;;;;;;10.80;5.60;;;;;;;6.17;93.91;99525.83;102938;1265;97859;-73
2023/01/13 09:35:00;;;;;;;10.90;5.50;;;;;;;6.19;93.75;99524.54;102861;1256;138979;-73
2023/01/13 09:37:29;;;;;;;10.80;5.50;;;;;;;6.22;93.65;99522.56;103058;1256;97889;-75
2023/01/13 09:39:57;;;;;;;11.10;5.90;;;;;;;6.25;93.21;99519.20;102937;1255;139191;-78
2023/01/13 09:45:25;;;;;;;9.80;5.20;;;;;;;6.32;92.35;99513.69;102881;1255;138198;-73
2023/01/13 09:47:59;;;;;;;10.80;5.60;;;;;;;6.33;92.04;99514.34;102928;1254;107410;-72
2023/01/13 09:50:41;;;;;;;10.50;5.60;;;;;;;6.35;91.77;99511.70;104063;1256;96246;-73
2023/01/13 09:53:14;;;;;;;9.10;5.50;;;;;;;6.37;91.64;99507.49;102930;1256;111387;-72
2023/01/13 09:55:44;;;;;;;12.10;6.10;;;;;;;6.40;91.34;99508.63;102866;1253;107417;-72
2023/01/13 09:58:16;;;;;;;8.90;5.40;;;;;;;6.43;91.26;99510.27;102848;1253;138342;-73
2023/01/13 10:00:51;;;;;;;11.00;5.90;;;;;;;6.45;91.08;99508.81;102988;1256;106848;-73
2023/01/13 10:03:26;;;;;;;14.60;6.50;;;;;;;6.50;90.68;99505.59;102743;1254;138466;-74
2023/01/13 10:06:03;;;;;;;10.90;6.00;;;;;;;6.54;90.66;99503.58;102998;1256;111315;-74
2023/01/13 10:08:33;;;;;;;12.90;5.70;;;;;;;6.57;90.42;99501.58;102916;1254;107727;-77
2023/01/13 10:13:13;;;;;;;11.60;6.30;;;;;;;6.59;90.24;99497.89;102875;1257;137994;-77
2023/01/13 10:14:39;;;;;;;13.60;5.70;;;;;;;6.62;89.79;99496.75;103098;1254;108215;-77
2023/01/13 10:17:20;;;;;;;10.60;5.60;;;;;;;6.65;89.43;99492.23;103272;1257;97880;-78
2023/01/13 10:19:52;;;;;;;11.40;5.80;;;;;;;6.68;89.71;99496.46;102992;1253;111381;-77
2023/01/13 10:22:51;;;;;;;10.50;5.60;;;;;;;6.72;89.40;99493.06;102921;1255;138129;-78
2023/01/13 10:25:28;;;;;;;8.50;5.00;;;;;;;6.76;89.03;99489.81;102939;1257;98412;-79
2023/01/13 10:28:03;;;;;;;10.10;5.20;;;;;;;6.82;88.86;99490.20;102844;1257;137867;-78
2023/01/13 10:30:37;;;;;;;7.30;5.10;;;;;;;6.86;88.66;99481.23;103245;1254;97798;-76
2023/01/13 10:33:13;;;;;;;10.90;5.10;;;;;;;6.92;88.71;99484.52;102840;1251;137975;-77
2023/01/13 10:35:59;;;;;;;8.70;5.10;;;;;;;6.97;88.12;99478.16;103095;1254;108183;-78
2023/01/13 10:38:29;;;;;;;9.30;4.80;;;;;;;7.00;87.97;99476.15;103195;1257;98321;-77
2023/01/13 10:40:59;;;;;;;10.90;4.70;;;;;;;7.03;87.58;99472.81;102982;1257;138504;-77
2023/01/13 10:43:28;;;;;;;9.00;5.00;;;;;;;7.05;87.43;99476.53;102950;1256;97697;-77
2023/01/13 10:46:03;;;;;;;8.60;4.60;;;;;;;7.08;87.34;99482.14;102893;1255;138098;-77
2023/01/13 10:48:40;;;;;;;8.70;5.20;;;;;;;7.11;87.03;99477.90;102973;1256;106961;-77
2023/01/13 10:51:18;;;;;;;;;;;;;;;7.14;86.74;99475.55;102923;1253;138412;-80
2023/01/13 10:53:53;;;;;;;10.70;5.70;;;;;;;7.18;86.83;99473.01;103626;1254;107911;-78
2023/01/13 10:56:22;;;;;;;8.50;4.90;;;;;;;7.23;86.65;99472.00;102834;1254;97746;-79
2023/01/13 10:58:50;;;;;;;9.20;4.80;;;;;;;7.29;86.24;99477.35;102170;1255;1002899;-76
2023/01/13 11:01:29;;;;;;;6.80;4.60;;;;;;;7.33;86.42;99479.11;102944;1256;108341;-78
2023/01/13 11:04:05;;;;;;;8.70;4.70;;;;;;;7.38;86.10;99470.33;103010;1256;139148;-80
2023/01/13 11:06:45;;;;;;;9.30;4.40;;;;;;;7.43;85.74;99472.27;103203;1254;109181;-82
2023/01/13 11:09:23;;;;;;;12.80;5.10;;;;;;;7.47;85.45;99464.52;102889;1254;139129;-80
2023/01/13 11:11:54;;;;;;;7.60;4.20;;;;;;;7.50;85.28;99464.55;104455;1254;110786;-76
2023/01/13 11:14:38;;;;;;;10.30;5.20;;;;;;;7.54;84.89;99464.09;103662;1254;108853;-76
2023/01/13 11:17:14;;;;;;;8.60;4.50;;;;;;;7.54;84.56;99458.05;102861;1253;139632;-76
2023/01/13 11:19:48;;;;;;;8.70;4.70;;;;;;;7.58;84.45;99460.52;100683;1256;1003584;-76
2023/01/13 11:22:25;;;;;;;8.70;4.70;;;;;;;7.63;84.68;99465.20;102689;1257;138818;-77
2023/01/13 11:24:58;;;;;;;6.80;4.50;;;;;;;7.66;83.85;99464.23;102947;1254;110706;-75
2023/01/13 11:27:38;;;;;;;9.20;4.60;;;;;;;7.70;84.23;99460.98;102822;1255;138978;-76
2023/01/13 11:30:21;;;;;;;10.60;5.50;;;;;;;7.73;83.83;99460.88;102943;1257;99104;-77
2023/01/13 11:33:01;;;;;;;8.50;5.20;;;;;;;7.75;83.40;99458.91;102906;1255;138257;-77
2023/01/13 11:35:31;;;;;;;10.20;5.30;;;;;;;7.75;83.15;99462.54;102902;1255;97781;-78
2023/01/13 11:38:04;;;;;;;9.10;4.80;;;;;;;7.75;83.02;99457.70;102923;1253;112508;-77
2023/01/13 11:40:37;;;;;;;7.40;4.40;;;;;;;7.77;82.98;99456.42;102808;1254;138514;-78
2023/01/13 11:43:13;;;;;;;9.50;4.80;;;;;;;7.79;82.59;99458.77;102940;1257;97701;-78
2023/01/13 11:45:45;;;;;;;11.20;5.60;;;;;;;7.80;82.60;99448.88;102886;1256;138043;-77
2023/01/13 11:48:16;;;;;;;7.70;4.50;;;;;;;7.81;82.54;99449.70;102782;1256;97799;-77
2023/01/13 11:50:49;;;;;;;9.30;5.10;;;;;;;7.81;82.56;99442.27;102887;1254;112620;-76
2023/01/13 11:53:33;;;;;;;10.40;5.50;;;;;;;7.81;82.46;99447.10;102990;1255;107462;-76
2023/01/13 11:56:23;;;;;;;10.50;5.30;;;;;;;7.80;82.30;99442.48;103075;1256;98293;-78
2023/01/13 11:59:17;;;;;;;10.60;5.30;;;;;;;7.78;82.30;99432.86;102896;1256;139142;-78
2023/01/13 12:02:04;;;;;;;10.20;5.00;;;;;;;7.75;82.35;99434.34;102984;1255;97797;-76
2023/01/13 12:04:41;;;;;;;8.70;5.60;;;;;;;7.75;82.15;99433.15;102931;1255;138353;-77
2023/01/13 12:07:19;;;;;;;12.00;5.50;;;;;;;7.74;82.09;99433.69;103023;1254;106798;-76
2023/01/13 12:10:04;;;;;;;9.80;5.70;;;;;;;7.74;82.15;99431.27;103187;1254;138218;-78
2023/01/13 12:12:51;;;;;;;9.90;4.80;;;;;;;7.75;81.97;99434.35;103087;1256;108484;-75
2023/01/13 12:15:56;;;;;;;9.30;5.30;;;;;;;7.75;81.99;99429.68;102979;1257;138487;-77
2023/01/13 12:18:41;;;;;;;9.90;5.30;;;;;;;7.76;82.02;99431.53;102612;1257;110987;-78
2023/01/13 12:21:20;;;;;;;12.00;5.90;;;;;;;7.76;81.88;99432.05;102470;1263;138670;-78